Language: 


Des rapports , des résumés tant et plus, au choix de chacun....


Données Historiques de Météogheer
Journalier Rapport pour Mars 5, 2017 Unitée:  Les deux    Impériale   Métrique
Suivant Jour »
Journalier Hebdomadaire Mensuel Annuel Sur mesure
  Max: Min: Moyenne:
Température: 48.6 °F /  9.2 °C 32 °F /  0.0 °C 44.1 °F /  6.7 °C
Point de rosée: 46 °F /  7.8 °C 38.7 °F /  3.7 °C 41.7 °F /  5.4 °C
Humidité: 98% 0% 91%
Vent: 22.1mph /  35.6km/h - 10.1mph /  16.2km/h
Rafales: 28mph /  45.1km/h - -
Vent- - SW
Pression: 29.4 in /  996.8 hPa 0 in /  0.0 hPa -
Pluie: 0.36 in /  9.1 mm    
Historical Graphs
 
 
Données tabulaires pour Mars 5, 2017
Heure Température Point de rosée Pression Vent Vent Rafales Humidité Pluie Taux (Horaire) Conditions
00:03 45.1 °F /  7.3 °C 43.3 °F /  6.3 °C 29.4in /  994.1hPa SW 13mph /  20.9km/h 13.2mph /  21.2km/h 93% 0in /  0.0mm
00:08 45.1 °F /  7.3 °C 43.3 °F /  6.3 °C 29.4in /  994.1hPa SW 7.2mph /  11.6km/h 13.2mph /  21.2km/h 93% 0in /  0.0mm
00:13 45.1 °F /  7.3 °C 43.3 °F /  6.3 °C 29.4in /  994.1hPa SW 8.1mph /  13.0km/h 13mph /  20.9km/h 93% 0in /  0.0mm
00:18 45.1 °F /  7.3 °C 43.3 °F /  6.3 °C 29.4in /  994.1hPa SW 8.7mph /  14.0km/h 12.5mph /  20.1km/h 93% 0in /  0.0mm
00:23 45.1 °F /  7.3 °C 43.3 °F /  6.3 °C 29.4in /  994.1hPa SSW 5.6mph /  9.0km/h 12.5mph /  20.1km/h 93% 0in /  0.0mm
00:28 45.1 °F /  7.3 °C 43.3 °F /  6.3 °C 29.4in /  994.1hPa WSW 10.7mph /  17.2km/h 12.3mph /  19.8km/h 93% 0in /  0.0mm
00:33 45.1 °F /  7.3 °C 43.3 °F /  6.3 °C 29.4in /  994.1hPa WSW 11mph /  17.7km/h 12.8mph /  20.6km/h 93% 0in /  0.0mm
00:38 45.1 °F /  7.3 °C 43.3 °F /  6.3 °C 29.4in /  995.1hPa WSW 9.8mph /  15.8km/h 13mph /  20.9km/h 93% 0in /  0.0mm
00:44 45.1 °F /  7.3 °C 43.3 °F /  6.3 °C 29.4in /  995.1hPa SSW 9.6mph /  15.4km/h 13mph /  20.9km/h 93% 0in /  0.0mm
00:49 45.1 °F /  7.3 °C 43.3 °F /  6.3 °C 29.4in /  995.1hPa SW 7.8mph /  12.6km/h 11mph /  17.7km/h 93% 0in /  0.0mm
00:54 45.1 °F /  7.3 °C 43.3 °F /  6.3 °C 29.4in /  996.2hPa SW 7.6mph /  12.2km/h 13.2mph /  21.2km/h 93% 0in /  0.0mm
00:59 45.3 °F /  7.4 °C 43.5 °F /  6.4 °C 29.4in /  996.2hPa WSW 9.6mph /  15.4km/h 13.2mph /  21.2km/h 93% 0in /  0.0mm
01:04 45.7 °F /  7.6 °C 43.7 °F /  6.5 °C 29.4in /  996.2hPa SW 7.8mph /  12.6km/h 14.3mph /  23.0km/h 93% 0in /  0.0mm
01:09 45.7 °F /  7.6 °C 43.7 °F /  6.5 °C 29.4in /  995.1hPa WSW 15.7mph /  25.3km/h 15.7mph /  25.3km/h 93% 0in /  0.0mm
01:14 45.7 °F /  7.6 °C 43.7 °F /  6.5 °C 29.4in /  995.1hPa SW 14.8mph /  23.8km/h 17.9mph /  28.8km/h 93% 0in /  0.0mm
01:19 45.9 °F /  7.7 °C 43.9 °F /  6.6 °C 29.4in /  995.1hPa SW 11.2mph /  18.0km/h 17.9mph /  28.8km/h 93% 0in /  0.0mm
01:24 45.9 °F /  7.7 °C 43.9 °F /  6.6 °C 29.4in /  995.1hPa SW 10.5mph /  16.9km/h 19.9mph /  32.0km/h 93% 0in /  0.0mm
01:29 45.7 °F /  7.6 °C 43.7 °F /  6.5 °C 29.4in /  995.1hPa SW 8.1mph /  13.0km/h 19.9mph /  32.0km/h 93% 0in /  0.0mm
01:34 45.3 °F /  7.4 °C 43.5 °F /  6.4 °C 29.4in /  995.1hPa SW 11mph /  17.7km/h 13mph /  20.9km/h 93% 0in /  0.0mm
01:39 45.1 °F /  7.3 °C 43.3 °F /  6.3 °C 29.4in /  995.1hPa WSW 7.8mph /  12.6km/h 12.5mph /  20.1km/h 93% 0in /  0.0mm
01:44 45.1 °F /  7.3 °C 43.2 °F /  6.2 °C 29.4in /  995.1hPa WSW 10.3mph /  16.6km/h 13mph /  20.9km/h 93% 0in /  0.0mm
01:49 45.1 °F /  7.3 °C 43.2 °F /  6.2 °C 29.4in /  995.1hPa WSW 11mph /  17.7km/h 14.5mph /  23.3km/h 93% 0in /  0.0mm
01:54 45.1 °F /  7.3 °C 43.3 °F /  6.3 °C 29.4in /  996.2hPa WSW 10.1mph /  16.3km/h 14.5mph /  23.3km/h 93% 0in /  0.0mm
01:59 45.3 °F /  7.4 °C 43.5 °F /  6.4 °C 29.4in /  996.2hPa SW 9.6mph /  15.4km/h 14.8mph /  23.8km/h 93% 0in /  0.0mm
02:04 45.1 °F /  7.3 °C 43.3 °F /  6.3 °C 29.4in /  996.2hPa SW 7.6mph /  12.2km/h 13.2mph /  21.2km/h 93% 0in /  0.0mm
02:09 45.1 °F /  7.3 °C 43.3 °F /  6.3 °C 29.4in /  996.2hPa SW 8.5mph /  13.7km/h 13mph /  20.9km/h 93% 0in /  0.0mm
02:14 45.1 °F /  7.3 °C 43.2 °F /  6.2 °C 29.4in /  996.2hPa SSW 5.4mph /  8.7km/h 13mph /  20.9km/h 93% 0in /  0.0mm
02:19 45.1 °F /  7.3 °C 43.2 °F /  6.2 °C 29.4in /  996.2hPa SW 10.3mph /  16.6km/h 13mph /  20.9km/h 93% 0in /  0.0mm
02:24 45.1 °F /  7.3 °C 43.2 °F /  6.2 °C 29.4in /  995.1hPa WSW 13.2mph /  21.2km/h 13.2mph /  21.2km/h 93% 0in /  0.0mm
02:30 45 °F /  7.2 °C 42.6 °F /  5.9 °C 29.4in /  995.1hPa SW 9.2mph /  14.8km/h 14.3mph /  23.0km/h 92% 0in /  0.0mm
02:35 44.4 °F /  6.9 °C 42.3 °F /  5.7 °C 29.4in /  995.1hPa WSW 10.5mph /  16.9km/h 14.3mph /  23.0km/h 92% 0in /  0.0mm
02:40 44.4 °F /  6.9 °C 42.3 °F /  5.7 °C 29.4in /  996.2hPa SW 9.8mph /  15.8km/h 14.1mph /  22.7km/h 92% 0in /  0.0mm
02:45 44.4 °F /  6.9 °C 42.3 °F /  5.7 °C 29.4in /  996.2hPa WSW 8.5mph /  13.7km/h 14.1mph /  22.7km/h 92% 0in /  0.0mm
02:50 44.2 °F /  6.8 °C 41.9 °F /  5.5 °C 29.4in /  996.2hPa SW 9.8mph /  15.8km/h 15.2mph /  24.5km/h 91% 0in /  0.0mm
02:55 44.2 °F /  6.8 °C 41.9 °F /  5.5 °C 29.4in /  996.2hPa SSW 8.1mph /  13.0km/h 15.2mph /  24.5km/h 91% 0in /  0.0mm
03:00 44.2 °F /  6.8 °C 41.9 °F /  5.5 °C 29.4in /  996.2hPa WSW 12.8mph /  20.6km/h 13.2mph /  21.2km/h 91% 0in /  0.0mm
03:06 32 °F /  0.0 °C 42.3 °F /  5.7 °C 0in /  0.0hPa WSW 10.3mph /  16.6km/h 11.4mph /  18.3km/h 0% 0in /  0.0mm
03:11 44.2 °F /  6.8 °C 42.3 °F /  5.7 °C 29.4in /  996.8hPa SW 6.5mph /  10.5km/h 13.2mph /  21.2km/h 92% 0in /  0.0mm
03:16 44.2 °F /  6.8 °C 42.3 °F /  5.7 °C 29.4in /  996.8hPa WSW 8.5mph /  13.7km/h 13.2mph /  21.2km/h 92% 0in /  0.0mm
03:21 44.2 °F /  6.8 °C 42.3 °F /  5.7 °C 29.4in /  996.8hPa SW 7.6mph /  12.2km/h 12.3mph /  19.8km/h 92% 0in /  0.0mm
03:26 44.2 °F /  6.8 °C 42.4 °F /  5.8 °C 29.4in /  996.8hPa SW 7.6mph /  12.2km/h 13mph /  20.9km/h 93% 0in /  0.0mm
03:31 44.2 °F /  6.8 °C 42.3 °F /  5.7 °C 29.4in /  996.8hPa SW 9.2mph /  14.8km/h 13mph /  20.9km/h 93% 0in /  0.0mm
03:36 44.2 °F /  6.8 °C 42.3 °F /  5.7 °C 29.4in /  996.8hPa SW 10.3mph /  16.6km/h 12.8mph /  20.6km/h 93% 0in /  0.0mm
03:41 44.1 °F /  6.7 °C 42.1 °F /  5.6 °C 29.4in /  996.8hPa SW 10.1mph /  16.3km/h 10.7mph /  17.2km/h 93% 0in /  0.0mm
03:46 44.1 °F /  6.7 °C 42.1 °F /  5.6 °C 29.4in /  996.8hPa SW 6.3mph /  10.1km/h 12.3mph /  19.8km/h 93% 0in /  0.0mm
03:51 43.9 °F /  6.6 °C 41.9 °F /  5.5 °C 29.4in /  996.8hPa WSW 8.1mph /  13.0km/h 12.3mph /  19.8km/h 93% 0in /  0.0mm
03:56 43.9 °F /  6.6 °C 41.5 °F /  5.3 °C 29.4in /  996.8hPa SW 7.8mph /  12.6km/h 10.5mph /  16.9km/h 92% 0in /  0.0mm
04:01 43.9 °F /  6.6 °C 41.5 °F /  5.3 °C 29.4in /  996.8hPa SSW 6.3mph /  10.1km/h 10.5mph /  16.9km/h 92% 0in /  0.0mm
04:06 43.5 °F /  6.4 °C 41.5 °F /  5.3 °C 29.4in /  996.8hPa WSW 8.7mph /  14.0km/h 10.3mph /  16.6km/h 92% 0in /  0.0mm
04:11 43.5 °F /  6.4 °C 41 °F /  5.0 °C 29.4in /  996.8hPa WSW 10.1mph /  16.3km/h 11mph /  17.7km/h 91% 0in /  0.0mm
04:16 43.5 °F /  6.4 °C 41 °F /  5.0 °C 29.4in /  996.8hPa SSW 9.4mph /  15.1km/h 11.4mph /  18.3km/h 91% 0in /  0.0mm
04:22 43.5 °F /  6.4 °C 40.6 °F /  4.8 °C 29.4in /  996.8hPa SSW 6.3mph /  10.1km/h 12.3mph /  19.8km/h 90% 0in /  0.0mm
04:27 43.3 °F /  6.3 °C 40.6 °F /  4.8 °C 29.4in /  996.8hPa SW 7.8mph /  12.6km/h 10.1mph /  16.3km/h 90% 0in /  0.0mm
04:32 43.3 °F /  6.3 °C 40.6 °F /  4.8 °C 29.4in /  996.8hPa SW 6.3mph /  10.1km/h 9.6mph /  15.4km/h 90% 0in /  0.0mm
04:37 43.3 °F /  6.3 °C 40.6 °F /  4.8 °C 29.4in /  996.8hPa SW 9.8mph /  15.8km/h 12.5mph /  20.1km/h 90% 0in /  0.0mm
04:42 43.3 °F /  6.3 °C 40.6 °F /  4.8 °C 29.4in /  996.8hPa SW 7.6mph /  12.2km/h 12.5mph /  20.1km/h 90% 0in /  0.0mm
04:47 43.5 °F /  6.4 °C 40.6 °F /  4.8 °C 29.4in /  996.8hPa SW 5.6mph /  9.0km/h 12.5mph /  20.1km/h 90% 0in /  0.0mm
04:52 43.3 °F /  6.3 °C 40.6 °F /  4.8 °C 29.4in /  996.8hPa SW 5.6mph /  9.0km/h 12.5mph /  20.1km/h 90% 0in /  0.0mm
04:57 43.3 °F /  6.3 °C 40.6 °F /  4.8 °C 29.4in /  996.8hPa SSW 6.3mph /  10.1km/h 10.1mph /  16.3km/h 90% 0in /  0.0mm
05:02 43.2 °F /  6.2 °C 40.5 °F /  4.7 °C 29.4in /  996.8hPa SSW 7.4mph /  11.9km/h 8.5mph /  13.7km/h 90% 0in /  0.0mm
05:07 43.2 °F /  6.2 °C 40.5 °F /  4.7 °C 29.4in /  996.8hPa WSW 9.2mph /  14.8km/h 12.3mph /  19.8km/h 90% 0in /  0.0mm
05:12 43.2 °F /  6.2 °C 40.5 °F /  4.7 °C 29.4in /  996.8hPa SW 8.7mph /  14.0km/h 12.3mph /  19.8km/h 90% 0in /  0.0mm
05:17 43.2 °F /  6.2 °C 40.5 °F /  4.7 °C 29.4in /  996.8hPa SW 8.9mph /  14.3km/h 12.8mph /  20.6km/h 90% 0in /  0.0mm
05:22 43.2 °F /  6.2 °C 40.5 °F /  4.7 °C 29.4in /  996.8hPa SSW 6.3mph /  10.1km/h 12.8mph /  20.6km/h 90% 0in /  0.0mm
05:27 43.2 °F /  6.2 °C 40.6 °F /  4.8 °C 29.4in /  996.8hPa WSW 6.5mph /  10.5km/h 10.7mph /  17.2km/h 91% 0in /  0.0mm
05:32 43.2 °F /  6.2 °C 40.6 °F /  4.8 °C 29.4in /  996.8hPa WSW 8.1mph /  13.0km/h 10.7mph /  17.2km/h 91% 0in /  0.0mm
05:37 43.3 °F /  6.3 °C 40.8 °F /  4.9 °C 29.4in /  996.8hPa SSW 5.4mph /  8.7km/h 10.3mph /  16.6km/h 91% 0in /  0.0mm
05:42 43.3 °F /  6.3 °C 40.8 °F /  4.9 °C 29.4in /  996.8hPa SSW 10.3mph /  16.6km/h 10.3mph /  16.6km/h 91% 0in /  0.0mm
05:47 43.3 °F /  6.3 °C 40.8 °F /  4.9 °C 29.4in /  996.8hPa SSW 8.9mph /  14.3km/h 10.3mph /  16.6km/h 91% 0in /  0.0mm
05:52 43.3 °F /  6.3 °C 40.8 °F /  4.9 °C 29.4in /  996.8hPa SSW 6mph /  9.7km/h 8.9mph /  14.3km/h 91% 0in /  0.0mm
05:56 43 °F /  6.1 °C 40.3 °F /  4.6 °C 29.4in /  996.8hPa SSW 6.5mph /  10.5km/h 8.7mph /  14.0km/h 90% 0in /  0.0mm
06:02 42.8 °F /  6.0 °C 39.9 °F /  4.4 °C 29.4in /  996.8hPa SSW 4.9mph /  7.9km/h 8.7mph /  14.0km/h 90% 0in /  0.0mm
06:07 42.4 °F /  5.8 °C 39.7 °F /  4.3 °C 29.4in /  996.8hPa SSW 5.6mph /  9.0km/h 8.7mph /  14.0km/h 90% 0in /  0.0mm
06:12 42.3 °F /  5.7 °C 39.7 °F /  4.3 °C 29.4in /  996.8hPa SSW 4.9mph /  7.9km/h 7.8mph /  12.6km/h 91% 0in /  0.0mm
06:17 42.1 °F /  5.6 °C 39.6 °F /  4.2 °C 29.4in /  996.8hPa SW 7.8mph /  12.6km/h 7.8mph /  12.6km/h 91% 0in /  0.0mm
06:22 41.9 °F /  5.5 °C 39.4 °F /  4.1 °C 29.4in /  996.8hPa SSW 3.1mph /  5.0km/h 7.8mph /  12.6km/h 91% 0in /  0.0mm
06:27 41.5 °F /  5.3 °C 39 °F /  3.9 °C 29.4in /  996.8hPa SSW 4.7mph /  7.6km/h 6.5mph /  10.5km/h 91% 0in /  0.0mm
06:32 41.4 °F /  5.2 °C 38.8 °F /  3.8 °C 29.4in /  996.8hPa SSW 6.5mph /  10.5km/h 6.5mph /  10.5km/h 91% 0in /  0.0mm
06:37 41.4 °F /  5.2 °C 39.2 °F /  4.0 °C 29.4in /  996.8hPa South 5.6mph /  9.0km/h 6.5mph /  10.5km/h 92% 0in /  0.0mm
06:42 41.2 °F /  5.1 °C 39 °F /  3.9 °C 29.4in /  996.8hPa South 6mph /  9.7km/h 9.8mph /  15.8km/h 92% 0in /  0.0mm
06:47 41 °F /  5.0 °C 38.8 °F /  3.8 °C 29.4in /  996.8hPa South 6mph /  9.7km/h 9.8mph /  15.8km/h 92% 0in /  0.0mm
06:52 40.8 °F /  4.9 °C 38.7 °F /  3.7 °C 29.4in /  996.8hPa South 3.1mph /  5.0km/h 8.1mph /  13.0km/h 92% 0in /  0.0mm
06:57 40.8 °F /  4.9 °C 39 °F /  3.9 °C 29.4in /  996.8hPa SSW 5.6mph /  9.0km/h 8.7mph /  14.0km/h 93% 0in /  0.0mm
07:02 40.8 °F /  4.9 °C 39.2 °F /  4.0 °C 29.4in /  996.8hPa South 6.5mph /  10.5km/h 10.3mph /  16.6km/h 94% 0in /  0.0mm
07:07 40.8 °F /  4.9 °C 39.2 °F /  4.0 °C 29.4in /  996.8hPa South 6.3mph /  10.1km/h 10.3mph /  16.6km/h 94% 0in /  0.0mm
07:12 40.8 °F /  4.9 °C 39.2 °F /  4.0 °C 29.4in /  996.8hPa SSW 7.8mph /  12.6km/h 10.7mph /  17.2km/h 94% 0in /  0.0mm
07:17 40.8 °F /  4.9 °C 39.6 °F /  4.2 °C 29.4in /  996.8hPa SSW 4.5mph /  7.2km/h 10.7mph /  17.2km/h 95% 0in /  0.0mm
07:22 40.8 °F /  4.9 °C 39.6 °F /  4.2 °C 29.4in /  996.8hPa South 6.7mph /  10.8km/h 10.3mph /  16.6km/h 95% 0in /  0.0mm
07:27 40.8 °F /  4.9 °C 39.6 °F /  4.2 °C 29.4in /  996.2hPa SSW 7.8mph /  12.6km/h 13.4mph /  21.6km/h 95% 0in /  0.0mm
07:32 41 °F /  5.0 °C 39.7 °F /  4.3 °C 29.4in /  996.2hPa South 10.1mph /  16.3km/h 13.4mph /  21.6km/h 95% 0in /  0.0mm
07:37 41 °F /  5.0 °C 39.7 °F /  4.3 °C 29.4in /  996.2hPa SSW 8.1mph /  13.0km/h 12.1mph /  19.5km/h 95% 0in /  0.0mm
07:42 41.2 °F /  5.1 °C 40.1 °F /  4.5 °C 29.4in /  996.2hPa South 5.6mph /  9.0km/h 12.1mph /  19.5km/h 96% 0in /  0.0mm
07:47 41.4 °F /  5.2 °C 40.3 °F /  4.6 °C 29.4in /  996.2hPa South 10.7mph /  17.2km/h 11mph /  17.7km/h 96% 0in /  0.0mm
07:52 41.5 °F /  5.3 °C 40.5 °F /  4.7 °C 29.4in /  996.2hPa SSW 9.4mph /  15.1km/h 15.2mph /  24.5km/h 96% 0in /  0.0mm
07:57 41.5 °F /  5.3 °C 40.3 °F /  4.6 °C 29.4in /  996.8hPa SSW 7.6mph /  12.2km/h 15.2mph /  24.5km/h 95% 0in /  0.0mm
08:02 41.7 °F /  5.4 °C 40.5 °F /  4.7 °C 29.4in /  996.8hPa South 7.4mph /  11.9km/h 12.8mph /  20.6km/h 95% 0in /  0.0mm
08:07 41.7 °F /  5.4 °C 40.5 °F /  4.7 °C 29.4in /  996.8hPa SSW 8.7mph /  14.0km/h 15.2mph /  24.5km/h 95% 0in /  0.0mm
08:12 41.7 °F /  5.4 °C 40.5 °F /  4.7 °C 29.4in /  996.8hPa SSE 7.4mph /  11.9km/h 15.2mph /  24.5km/h 95% 0in /  0.0mm
08:17 41.7 °F /  5.4 °C 40.5 °F /  4.7 °C 29.4in /  996.8hPa SSW 8.7mph /  14.0km/h 12.5mph /  20.1km/h 95% 0in /  0.0mm
08:22 41.9 °F /  5.5 °C 40.6 °F /  4.8 °C 29.4in /  996.2hPa South 10.1mph /  16.3km/h 11.4mph /  18.3km/h 95% 0in /  0.0mm
08:27 42.3 °F /  5.7 °C 40.8 °F /  4.9 °C 29.4in /  996.2hPa South 10.1mph /  16.3km/h 13.2mph /  21.2km/h 95% 0in /  0.0mm
08:32 43 °F /  6.1 °C 41.5 °F /  5.3 °C 29.4in /  996.2hPa SSW 11mph /  17.7km/h 14.3mph /  23.0km/h 95% 0in /  0.0mm
08:37 43.2 °F /  6.2 °C 41.5 °F /  5.3 °C 29.4in /  996.2hPa South 14.3mph /  23.0km/h 14.8mph /  23.8km/h 94% 0in /  0.0mm
08:42 43.3 °F /  6.3 °C 41.7 °F /  5.4 °C 29.4in /  996.2hPa SSE 7.8mph /  12.6km/h 15.4mph /  24.8km/h 94% 0in /  0.0mm
08:47 43.3 °F /  6.3 °C 41.4 °F /  5.2 °C 29.4in /  996.2hPa South 10.3mph /  16.6km/h 15.4mph /  24.8km/h 93% 0in /  0.0mm
08:48 43.3 °F /  6.3 °C 41.2 °F /  5.1 °C 29.4in /  996.2hPa SSW 12.5mph /  20.1km/h 15.4mph /  24.8km/h 92% 0in /  0.0mm
08:53 43.5 °F /  6.4 °C 41.4 °F /  5.2 °C 29.4in /  996.8hPa SSE 9.8mph /  15.8km/h 15.2mph /  24.5km/h 92% 0in /  0.0mm
08:58 43.5 °F /  6.4 °C 41.5 °F /  5.3 °C 29.4in /  996.8hPa South 8.7mph /  14.0km/h 15.2mph /  24.5km/h 92% 0in /  0.0mm
09:03 43.9 °F /  6.6 °C 41.4 °F /  5.2 °C 29.4in /  996.8hPa South 10.7mph /  17.2km/h 14.8mph /  23.8km/h 91% 0in /  0.0mm
09:08 43.9 °F /  6.6 °C 41.4 °F /  5.2 °C 29.4in /  996.8hPa SSE 9.2mph /  14.8km/h 17.4mph /  28.0km/h 91% 0in /  0.0mm
09:13 44.1 °F /  6.7 °C 41.4 °F /  5.2 °C 29.4in /  996.8hPa South 5.4mph /  8.7km/h 17.4mph /  28.0km/h 90% 0in /  0.0mm
09:18 44.1 °F /  6.7 °C 41.4 °F /  5.2 °C 29.4in /  996.8hPa SSW 11mph /  17.7km/h 19.9mph /  32.0km/h 90% 0in /  0.0mm
09:23 44.2 °F /  6.8 °C 41.4 °F /  5.2 °C 29.4in /  996.2hPa South 6.5mph /  10.5km/h 19.9mph /  32.0km/h 90% 0in /  0.0mm
09:28 44.2 °F /  6.8 °C 41.4 °F /  5.2 °C 29.4in /  996.2hPa South 12.5mph /  20.1km/h 17mph /  27.4km/h 89% 0in /  0.0mm
09:33 45 °F /  7.2 °C 41.7 °F /  5.4 °C 29.4in /  996.2hPa South 13.2mph /  21.2km/h 15.4mph /  24.8km/h 89% 0in /  0.0mm
09:38 45.1 °F /  7.3 °C 42.3 °F /  5.7 °C 29.4in /  996.2hPa South 7.6mph /  12.2km/h 19.9mph /  32.0km/h 89% 0in /  0.0mm
09:43 45.9 °F /  7.7 °C 43 °F /  6.1 °C 29.4in /  996.2hPa SW 10.1mph /  16.3km/h 21.3mph /  34.3km/h 89% 0in /  0.0mm
09:48 45.9 °F /  7.7 °C 42.3 °F /  5.7 °C 29.4in /  996.2hPa SSW 12.5mph /  20.1km/h 21.3mph /  34.3km/h 87% 0in /  0.0mm
09:53 45.3 °F /  7.4 °C 41.2 °F /  5.1 °C 29.4in /  996.2hPa South 15.4mph /  24.8km/h 21mph /  33.8km/h 85% 0in /  0.0mm
09:58 45.1 °F /  7.3 °C 41 °F /  5.0 °C 29.4in /  996.2hPa WSW 14.8mph /  23.8km/h 21mph /  33.8km/h 85% 0in /  0.0mm
10:03 45.3 °F /  7.4 °C 41.5 °F /  5.3 °C 29.4in /  996.2hPa South 10.3mph /  16.6km/h 17.4mph /  28.0km/h 86% 0in /  0.0mm
10:08 45.7 °F /  7.6 °C 41.5 °F /  5.3 °C 29.4in /  995.1hPa SSW 8.5mph /  13.7km/h 17.4mph /  28.0km/h 86% 0in /  0.0mm
10:13 45.7 °F /  7.6 °C 41.5 °F /  5.3 °C 29.4in /  995.1hPa South 11.2mph /  18.0km/h 17.7mph /  28.5km/h 86% 0in /  0.0mm
10:18 45.7 °F /  7.6 °C 41.5 °F /  5.3 °C 29.4in /  995.1hPa SSW 9.8mph /  15.8km/h 17.7mph /  28.5km/h 86% 0in /  0.0mm
10:23 45.9 °F /  7.7 °C 41.7 °F /  5.4 °C 29.4in /  994.1hPa South 15.4mph /  24.8km/h 15.4mph /  24.8km/h 86% 0in /  0.0mm
10:28 45.9 °F /  7.7 °C 41.5 °F /  5.3 °C 29.4in /  994.1hPa South 9.4mph /  15.1km/h 17.4mph /  28.0km/h 85% 0in /  0.0mm
10:33 45.9 °F /  7.7 °C 42.1 °F /  5.6 °C 29.4in /  994.1hPa SSW 12.8mph /  20.6km/h 17.4mph /  28.0km/h 86% 0in /  0.0mm
10:38 45.9 °F /  7.7 °C 41.5 °F /  5.3 °C 29.4in /  995.1hPa SSW 17.9mph /  28.8km/h 19.2mph /  30.9km/h 85% 0in /  0.0mm
10:43 45.7 °F /  7.6 °C 41.4 °F /  5.2 °C 29.4in /  995.1hPa SSE 14.5mph /  23.3km/h 19.2mph /  30.9km/h 85% 0in /  0.0mm
10:48 45.7 °F /  7.6 °C 41.4 °F /  5.2 °C 29.4in /  995.1hPa SSE 13.2mph /  21.2km/h 22.1mph /  35.6km/h 85% 0in /  0.0mm
10:53 45.3 °F /  7.4 °C 41.2 °F /  5.1 °C 29.4in /  995.1hPa South 17mph /  27.4km/h 22.1mph /  35.6km/h 85% 0in /  0.0mm
10:58 45.1 °F /  7.3 °C 41 °F /  5.0 °C 29.4in /  995.1hPa SSW 11mph /  17.7km/h 21.9mph /  35.2km/h 85% 0in /  0.0mm
11:03 45.1 °F /  7.3 °C 41.4 °F /  5.2 °C 29.4in /  995.1hPa South 13.6mph /  21.9km/h 21.9mph /  35.2km/h 86% 0in /  0.0mm
11:08 45.1 °F /  7.3 °C 41.4 °F /  5.2 °C 29.4in /  995.1hPa South 19.9mph /  32.0km/h 19.9mph /  32.0km/h 86% 0in /  0.0mm
11:13 45 °F /  7.2 °C 40.8 °F /  4.9 °C 29.4in /  995.1hPa SSW 20.8mph /  33.5km/h 20.8mph /  33.5km/h 86% 0in /  0.0mm
11:18 44.2 °F /  6.8 °C 40.5 °F /  4.7 °C 29.4in /  995.1hPa SSW 9.8mph /  15.8km/h 20.8mph /  33.5km/h 86% 0in /  0.0mm
11:23 43.9 °F /  6.6 °C 40.3 °F /  4.6 °C 29.4in /  995.1hPa South 10.7mph /  17.2km/h 20.8mph /  33.5km/h 87% 0.02in /  0.5mm
11:28 43.3 °F /  6.3 °C 39.9 °F /  4.4 °C 29.4in /  995.1hPa South 19.7mph /  31.7km/h 22.6mph /  36.4km/h 88% 0.04in /  1.0mm
11:33 43.2 °F /  6.2 °C 40.1 °F /  4.5 °C 29.4in /  995.1hPa SSW 14.3mph /  23.0km/h 23mph /  37.0km/h 89% 0.05in /  1.3mm
11:38 42.8 °F /  6.0 °C 40.3 °F /  4.6 °C 29.4in /  994.1hPa SW 11mph /  17.7km/h 23.3mph /  37.5km/h 91% 0.07in /  1.8mm
11:43 42.3 °F /  5.7 °C 40.1 °F /  4.5 °C 29.4in /  994.1hPa SSW 13.2mph /  21.2km/h 26.8mph /  43.1km/h 92% 0.07in /  1.8mm
11:48 41.9 °F /  5.5 °C 39.7 °F /  4.3 °C 29.4in /  994.1hPa SSW 9.2mph /  14.8km/h 26.8mph /  43.1km/h 92% 0.13in /  3.3mm
11:53 41.5 °F /  5.3 °C 39.7 °F /  4.3 °C 29.4in /  994.1hPa South 17mph /  27.4km/h 25.3mph /  40.7km/h 93% 0.13in /  3.3mm
11:58 41.2 °F /  5.1 °C 39.4 °F /  4.1 °C 29.4in /  994.1hPa South 12.8mph /  20.6km/h 25.3mph /  40.7km/h 93% 0.17in /  4.3mm
12:03 41 °F /  5.0 °C 39.4 °F /  4.1 °C 29.4in /  994.1hPa South 14.3mph /  23.0km/h 23.3mph /  37.5km/h 94% 0.17in /  4.3mm
12:08 41 °F /  5.0 °C 39.4 °F /  4.1 °C 29.4in /  994.1hPa SSW 13.6mph /  21.9km/h 25.9mph /  41.7km/h 94% 0.19in /  4.8mm
12:13 40.8 °F /  4.9 °C 39.6 °F /  4.2 °C 29.4in /  994.1hPa SSW 17.2mph /  27.7km/h 25.9mph /  41.7km/h 95% 0.19in /  4.8mm
12:18 40.8 °F /  4.9 °C 39.6 °F /  4.2 °C 29.4in /  994.1hPa South 17.4mph /  28.0km/h 24.6mph /  39.6km/h 95% 0.19in /  4.8mm
12:23 40.8 °F /  4.9 °C 39.7 °F /  4.3 °C 29.4in /  994.1hPa South 15.9mph /  25.6km/h 24.6mph /  39.6km/h 96% 0.17in /  4.3mm
12:28 40.8 °F /  4.9 °C 39.7 °F /  4.3 °C 29.4in /  994.1hPa South 15.4mph /  24.8km/h 24.2mph /  38.9km/h 96% 0.16in /  4.1mm
12:33 40.8 °F /  4.9 °C 39.9 °F /  4.4 °C 29.4in /  994.1hPa South 18.8mph /  30.2km/h 24.2mph /  38.9km/h 97% 0.15in /  3.8mm
12:38 41 °F /  5.0 °C 40.3 °F /  4.6 °C 29.4in /  994.1hPa South 16.1mph /  25.9km/h 22.6mph /  36.4km/h 97% 0.13in /  3.3mm
12:43 41 °F /  5.0 °C 40.3 °F /  4.6 °C 29.4in /  994.1hPa SSE 19.5mph /  31.4km/h 22.6mph /  36.4km/h 97% 0.13in /  3.3mm
12:48 41.2 °F /  5.1 °C 40.5 °F /  4.7 °C 29.4in /  994.1hPa South 11mph /  17.7km/h 25.3mph /  40.7km/h 97% 0.07in /  1.8mm
12:53 41.4 °F /  5.2 °C 40.6 °F /  4.8 °C 29.3in /  993.1hPa South 10.1mph /  16.3km/h 25.3mph /  40.7km/h 97% 0.07in /  1.8mm
12:58 41.4 °F /  5.2 °C 40.6 °F /  4.8 °C 29.3in /  993.1hPa SSW 11mph /  17.7km/h 20.1mph /  32.3km/h 97% 0.03in /  0.8mm
13:03 41.4 °F /  5.2 °C 40.6 °F /  4.8 °C 29.3in /  993.1hPa South 8.7mph /  14.0km/h 21.9mph /  35.2km/h 97% 0.03in /  0.8mm
13:08 41.5 °F /  5.3 °C 40.6 °F /  4.8 °C 29.3in /  993.1hPa SSW 13mph /  20.9km/h 21.9mph /  35.2km/h 97% 0.01in /  0.3mm
13:13 41.5 °F /  5.3 °C 40.6 °F /  4.8 °C 29.3in /  993.1hPa SSW 15.4mph /  24.8km/h 23mph /  37.0km/h 97% 0.01in /  0.3mm
13:18 41.5 °F /  5.3 °C 40.6 °F /  4.8 °C 29.3in /  993.1hPa SSW 10.7mph /  17.2km/h 23mph /  37.0km/h 97% 0.02in /  0.5mm
13:23 41.5 °F /  5.3 °C 40.6 °F /  4.8 °C 29.3in /  993.1hPa SSW 15.7mph /  25.3km/h 19.9mph /  32.0km/h 97% 0.01in /  0.3mm
13:28 41.5 °F /  5.3 °C 40.6 °F /  4.8 °C 29.3in /  993.1hPa SSW 15.2mph /  24.5km/h 22.6mph /  36.4km/h 97% 0.01in /  0.3mm
13:33 41.5 °F /  5.3 °C 40.5 °F /  4.7 °C 29.3in /  993.1hPa South 10.5mph /  16.9km/h 22.6mph /  36.4km/h 96% 0.01in /  0.3mm
13:38 41.5 °F /  5.3 °C 40.5 °F /  4.7 °C 29.3in /  993.1hPa SSW 10.7mph /  17.2km/h 19.7mph /  31.7km/h 96% 0.01in /  0.3mm
13:43 41.7 °F /  5.4 °C 40.6 °F /  4.8 °C 29.3in /  993.1hPa South 13.9mph /  22.4km/h 16.1mph /  25.9km/h 96% 0.01in /  0.3mm
13:48 41.7 °F /  5.4 °C 40.6 °F /  4.8 °C 29.3in /  993.1hPa SSW 10.1mph /  16.3km/h 19mph /  30.6km/h 96% 0.01in /  0.3mm
13:53 41.9 °F /  5.5 °C 40.8 °F /  4.9 °C 29.3in /  993.1hPa SSW 12.1mph /  19.5km/h 19.5mph /  31.4km/h 96% 0.01in /  0.3mm
13:58 42.1 °F /  5.6 °C 41 °F /  5.0 °C 29.3in /  993.1hPa SSW 10.1mph /  16.3km/h 19.5mph /  31.4km/h 96% 0.01in /  0.3mm
14:03 42.1 °F /  5.6 °C 41 °F /  5.0 °C 29.3in /  993.1hPa SW 7.4mph /  11.9km/h 15.4mph /  24.8km/h 96% 0.01in /  0.3mm
14:08 42.3 °F /  5.7 °C 41.4 °F /  5.2 °C 29.3in /  993.1hPa SSE 17mph /  27.4km/h 17mph /  27.4km/h 97% 0.01in /  0.3mm
14:13 42.4 °F /  5.8 °C 41.5 °F /  5.3 °C 29.3in /  993.1hPa South 14.8mph /  23.8km/h 17.7mph /  28.5km/h 97% 0.01in /  0.3mm
14:18 42.6 °F /  5.9 °C 41.7 °F /  5.4 °C 29.3in /  993.1hPa SW 8.7mph /  14.0km/h 17.7mph /  28.5km/h 97% 0in /  0.0mm
14:23 42.6 °F /  5.9 °C 41.7 °F /  5.4 °C 29.3in /  993.1hPa South 12.3mph /  19.8km/h 19.7mph /  31.7km/h 97% 0in /  0.0mm
14:28 42.8 °F /  6.0 °C 42.1 °F /  5.6 °C 29.3in /  993.1hPa SW 6.3mph /  10.1km/h 19.7mph /  31.7km/h 97% 0in /  0.0mm
14:33 42.8 °F /  6.0 °C 42.1 °F /  5.6 °C 29.3in /  993.1hPa SSW 12.3mph /  19.8km/h 13mph /  20.9km/h 97% 0in /  0.0mm
14:38 43 °F /  6.1 °C 42.1 °F /  5.6 °C 29.3in /  993.1hPa SSW 12.5mph /  20.1km/h 13mph /  20.9km/h 97% 0in /  0.0mm
14:43 43.2 °F /  6.2 °C 42.3 °F /  5.7 °C 29.3in /  993.1hPa SSW 7.4mph /  11.9km/h 14.1mph /  22.7km/h 97% 0in /  0.0mm
14:48 43.3 °F /  6.3 °C 42.4 °F /  5.8 °C 29.3in /  993.1hPa SSW 9.8mph /  15.8km/h 14.1mph /  22.7km/h 97% 0in /  0.0mm
14:53 43.5 °F /  6.4 °C 42.6 °F /  5.9 °C 29.3in /  993.1hPa South 7.4mph /  11.9km/h 12.3mph /  19.8km/h 97% 0in /  0.0mm
14:58 44.1 °F /  6.7 °C 43.2 °F /  6.2 °C 29.3in /  993.1hPa South 12.8mph /  20.6km/h 12.8mph /  20.6km/h 97% 0in /  0.0mm
15:03 44.4 °F /  6.9 °C 43.7 °F /  6.5 °C 29.3in /  993.1hPa SSW 11.9mph /  19.1km/h 14.3mph /  23.0km/h 97% 0in /  0.0mm
15:08 45.1 °F /  7.3 °C 44.4 °F /  6.9 °C 29.3in /  992.1hPa SSW 10.7mph /  17.2km/h 14.3mph /  23.0km/h 97% 0in /  0.0mm
15:13 45.7 °F /  7.6 °C 44.8 °F /  7.1 °C 29.3in /  992.1hPa SSW 11mph /  17.7km/h 13.9mph /  22.4km/h 97% 0in /  0.0mm
15:18 45.7 °F /  7.6 °C 44.8 °F /  7.1 °C 29.3in /  992.1hPa SSW 10.1mph /  16.3km/h 13.9mph /  22.4km/h 97% 0in /  0.0mm
15:23 45.7 °F /  7.6 °C 44.4 °F /  6.9 °C 29.3in /  992.1hPa SSW 6.3mph /  10.1km/h 12.3mph /  19.8km/h 96% 0in /  0.0mm
15:28 45.9 °F /  7.7 °C 44.8 °F /  7.1 °C 29.3in /  992.1hPa SSW 6.3mph /  10.1km/h 12.3mph /  19.8km/h 96% 0in /  0.0mm
15:33 45.9 °F /  7.7 °C 45 °F /  7.2 °C 29.3in /  992.1hPa SSW 8.1mph /  13.0km/h 13.2mph /  21.2km/h 96% 0in /  0.0mm
15:38 46.2 °F /  7.9 °C 45 °F /  7.2 °C 29.3in /  993.1hPa SW 5.6mph /  9.0km/h 13.2mph /  21.2km/h 95% 0in /  0.0mm
15:43 46.2 °F /  7.9 °C 45 °F /  7.2 °C 29.3in /  993.1hPa SW 5.4mph /  8.7km/h 9.8mph /  15.8km/h 95% 0in /  0.0mm
15:44 46.2 °F /  7.9 °C 45 °F /  7.2 °C 29.3in /  993.1hPa SSW 6.5mph /  10.5km/h 9.8mph /  15.8km/h 95% 0in /  0.0mm
15:49 46 °F /  7.8 °C 44.4 °F /  6.9 °C 29.3in /  993.1hPa South 6.3mph /  10.1km/h 9.8mph /  15.8km/h 94% 0in /  0.0mm
15:54 46 °F /  7.8 °C 44.4 °F /  6.9 °C 29.3in /  993.1hPa SSW 8.1mph /  13.0km/h 9.8mph /  15.8km/h 94% 0in /  0.0mm
15:59 46 °F /  7.8 °C 44.4 °F /  6.9 °C 29.3in /  993.1hPa WSW 6.5mph /  10.5km/h 10.5mph /  16.9km/h 94% 0in /  0.0mm
16:04 46 °F /  7.8 °C 44.2 °F /  6.8 °C 29.3in /  993.1hPa WSW 10.5mph /  16.9km/h 10.5mph /  16.9km/h 93% 0in /  0.0mm
16:09 46.2 °F /  7.9 °C 44.4 °F /  6.9 °C 29.3in /  993.1hPa WSW 7.4mph /  11.9km/h 11.9mph /  19.1km/h 93% 0in /  0.0mm
16:14 46.6 °F /  8.1 °C 44.6 °F /  7.0 °C 29.3in /  993.1hPa SW 7.8mph /  12.6km/h 11.9mph /  19.1km/h 93% 0in /  0.0mm
16:19 46.6 °F /  8.1 °C 44.8 °F /  7.1 °C 29.3in /  993.1hPa SW 5.6mph /  9.0km/h 10.7mph /  17.2km/h 93% 0in /  0.0mm
16:24 46.6 °F /  8.1 °C 44.8 °F /  7.1 °C 29.3in /  993.1hPa WSW 6.5mph /  10.5km/h 10.7mph /  17.2km/h 93% 0in /  0.0mm
16:29 46.6 °F /  8.1 °C 44.4 °F /  6.9 °C 29.3in /  993.1hPa SW 5.4mph /  8.7km/h 9.2mph /  14.8km/h 92% 0in /  0.0mm
16:34 46.6 °F /  8.1 °C 44.4 °F /  6.9 °C 29.3in /  993.1hPa SSW 5.8mph /  9.3km/h 9.2mph /  14.8km/h 92% 0in /  0.0mm
16:39 46.6 °F /  8.1 °C 44.4 °F /  6.9 °C 29.3in /  993.1hPa WSW 6.5mph /  10.5km/h 11mph /  17.7km/h 92% 0in /  0.0mm
16:44 46.9 °F /  8.3 °C 44.8 °F /  7.1 °C 29.3in /  993.1hPa WSW 8.7mph /  14.0km/h 11mph /  17.7km/h 92% 0in /  0.0mm
16:49 47.7 °F /  8.7 °C 45.9 °F /  7.7 °C 29.3in /  993.1hPa SSW 4.5mph /  7.2km/h 11mph /  17.7km/h 93% 0in /  0.0mm
16:54 48.2 °F /  9.0 °C 46 °F /  7.8 °C 29.3in /  993.1hPa SSW 8.1mph /  13.0km/h 11mph /  17.7km/h 92% 0in /  0.0mm
16:59 48.4 °F /  9.1 °C 45.9 °F /  7.7 °C 29.3in /  993.1hPa WSW 6mph /  9.7km/h 11mph /  17.7km/h 91% 0in /  0.0mm
17:04 48.6 °F /  9.2 °C 45.9 °F /  7.7 °C 29.3in /  993.1hPa SW 12.3mph /  19.8km/h 12.3mph /  19.8km/h 90% 0in /  0.0mm
17:09 48.6 °F /  9.2 °C 45 °F /  7.2 °C 29.3in /  993.1hPa SW 13mph /  20.9km/h 28mph /  45.1km/h 87% 0in /  0.0mm
17:14 48.4 °F /  9.1 °C 44.1 °F /  6.7 °C 29.3in /  993.1hPa West 10.7mph /  17.2km/h 28mph /  45.1km/h 85% 0in /  0.0mm
17:19 48.2 °F /  9.0 °C 43 °F /  6.1 °C 29.3in /  993.1hPa West 22.1mph /  35.6km/h 22.1mph /  35.6km/h 82% 0in /  0.0mm
17:24 48 °F /  8.9 °C 41.5 °F /  5.3 °C 29.3in /  992.1hPa WSW 19.7mph /  31.7km/h 24.2mph /  38.9km/h 78% 0in /  0.0mm
17:29 47.3 °F /  8.5 °C 41.2 °F /  5.1 °C 29.3in /  992.1hPa West 16.6mph /  26.7km/h 24.2mph /  38.9km/h 79% 0in /  0.0mm
17:34 47.1 °F /  8.4 °C 41.5 °F /  5.3 °C 29.3in /  992.1hPa WSW 15.2mph /  24.5km/h 22.4mph /  36.0km/h 81% 0in /  0.0mm
17:39 47.1 °F /  8.4 °C 42.1 °F /  5.6 °C 29.3in /  993.1hPa WSW 13mph /  20.9km/h 19.5mph /  31.4km/h 82% 0in /  0.0mm
17:44 46.9 °F /  8.3 °C 41.7 °F /  5.4 °C 29.3in /  993.1hPa West 17.2mph /  27.7km/h 20.6mph /  33.1km/h 82% 0in /  0.0mm
17:49 47.1 °F /  8.4 °C 42.1 °F /  5.6 °C 29.3in /  993.1hPa West 12.1mph /  19.5km/h 25.7mph /  41.4km/h 82% 0in /  0.0mm
17:54 47.1 °F /  8.4 °C 42.3 °F /  5.7 °C 29.3in /  993.1hPa WSW 16.1mph /  25.9km/h 25.7mph /  41.4km/h 83% 0in /  0.0mm
17:59 47.1 °F /  8.4 °C 42.1 °F /  5.6 °C 29.3in /  993.1hPa WSW 13mph /  20.9km/h 17.4mph /  28.0km/h 82% 0in /  0.0mm
18:04 46.9 °F /  8.3 °C 41.5 °F /  5.3 °C 29.3in /  993.1hPa WSW 15.4mph /  24.8km/h 20.6mph /  33.1km/h 81% 0in /  0.0mm
18:09 46.8 °F /  8.2 °C 41.4 °F /  5.2 °C 29.4in /  994.1hPa WSW 12.5mph /  20.1km/h 20.6mph /  33.1km/h 81% 0in /  0.0mm
18:14 46.6 °F /  8.1 °C 41.4 °F /  5.2 °C 29.4in /  994.1hPa West 12.8mph /  20.6km/h 19.5mph /  31.4km/h 82% 0in /  0.0mm
18:19 46.2 °F /  7.9 °C 41.2 °F /  5.1 °C 29.4in /  994.1hPa SW 11.4mph /  18.3km/h 15.4mph /  24.8km/h 82% 0in /  0.0mm
18:24 46 °F /  7.8 °C 41.2 °F /  5.1 °C 29.4in /  994.1hPa WSW 12.8mph /  20.6km/h 13.4mph /  21.6km/h 83% 0in /  0.0mm
18:29 45.9 °F /  7.7 °C 41.2 °F /  5.1 °C 29.4in /  994.1hPa WSW 8.7mph /  14.0km/h 13.4mph /  21.6km/h 84% 0in /  0.0mm
18:34 45.3 °F /  7.4 °C 41.2 °F /  5.1 °C 29.4in /  994.1hPa WSW 10.3mph /  16.6km/h 13.4mph /  21.6km/h 85% 0.18in /  4.6mm
18:39 45.3 °F /  7.4 °C 41.5 °F /  5.3 °C 29.4in /  994.1hPa WSW 10.3mph /  16.6km/h 14.5mph /  23.3km/h 86% 0in /  0.0mm
18:44 45.1 °F /  7.3 °C 41.4 °F /  5.2 °C 29.4in /  994.1hPa WSW 8.1mph /  13.0km/h 14.5mph /  23.3km/h 86% 0in /  0.0mm
18:49 45.1 °F /  7.3 °C 41.5 °F /  5.3 °C 29.4in /  994.1hPa WSW 9.8mph /  15.8km/h 12.3mph /  19.8km/h 87% 0in /  0.0mm
18:54 45.1 °F /  7.3 °C 41.4 °F /  5.2 °C 29.4in /  994.1hPa WSW 10.1mph /  16.3km/h 12.3mph /  19.8km/h 87% 0in /  0.0mm
18:59 45 °F /  7.2 °C 41.2 °F /  5.1 °C 29.4in /  994.1hPa WSW 6.5mph /  10.5km/h 10.1mph /  16.3km/h 87% 0in /  0.0mm
19:04 44.8 °F /  7.1 °C 41.4 °F /  5.2 °C 29.4in /  994.1hPa WSW 8.5mph /  13.7km/h 10.3mph /  16.6km/h 88% 0in /  0.0mm
19:09 44.8 °F /  7.1 °C 41.7 °F /  5.4 °C 29.4in /  994.1hPa SW 9.4mph /  15.1km/h 11mph /  17.7km/h 89% 0in /  0.0mm
19:14 45 °F /  7.2 °C 41.7 °F /  5.4 °C 29.4in /  994.1hPa WSW 10.1mph /  16.3km/h 13mph /  20.9km/h 89% 0in /  0.0mm
19:19 44.8 °F /  7.1 °C 41.9 °F /  5.5 °C 29.4in /  994.1hPa SW 11mph /  17.7km/h 13mph /  20.9km/h 90% 0in /  0.0mm
19:24 44.8 °F /  7.1 °C 41.9 °F /  5.5 °C 29.4in /  995.1hPa WSW 10.7mph /  17.2km/h 15.4mph /  24.8km/h 90% 0in /  0.0mm
19:29 44.4 °F /  6.9 °C 41.7 °F /  5.4 °C 29.4in /  995.1hPa WSW 7.6mph /  12.2km/h 15.4mph /  24.8km/h 90% 0in /  0.0mm
19:34 44.4 °F /  6.9 °C 41.7 °F /  5.4 °C 29.4in /  995.1hPa WSW 7.8mph /  12.6km/h 14.8mph /  23.8km/h 90% 0in /  0.0mm
19:39 44.4 °F /  6.9 °C 41.7 °F /  5.4 °C 29.4in /  995.1hPa West 15.2mph /  24.5km/h 15.2mph /  24.5km/h 90% 0in /  0.0mm
19:44 44.8 °F /  7.1 °C 42.3 °F /  5.7 °C 29.4in /  995.1hPa WSW 9.8mph /  15.8km/h 15.2mph /  24.5km/h 91% 0in /  0.0mm
19:49 44.8 °F /  7.1 °C 41.9 °F /  5.5 °C 29.4in /  995.1hPa WSW 11mph /  17.7km/h 14.8mph /  23.8km/h 90% 0in /  0.0mm
19:54 44.4 °F /  6.9 °C 41.7 °F /  5.4 °C 29.4in /  994.1hPa WSW 9.8mph /  15.8km/h 15.4mph /  24.8km/h 90% 0in /  0.0mm
19:59 44.4 °F /  6.9 °C 41.7 °F /  5.4 °C 29.4in /  994.1hPa WSW 12.3mph /  19.8km/h 16.8mph /  27.0km/h 90% 0in /  0.0mm
20:04 44.4 °F /  6.9 °C 41.7 °F /  5.4 °C 29.4in /  994.1hPa WSW 10.5mph /  16.9km/h 16.8mph /  27.0km/h 90% 0in /  0.0mm
20:09 44.2 °F /  6.8 °C 41.4 °F /  5.2 °C 29.4in /  995.1hPa SW 10.3mph /  16.6km/h 17mph /  27.4km/h 89% 0in /  0.0mm
20:14 44.2 °F /  6.8 °C 41.4 °F /  5.2 °C 29.4in /  995.1hPa WSW 11.2mph /  18.0km/h 17mph /  27.4km/h 90% 0in /  0.0mm
20:19 44.1 °F /  6.7 °C 41 °F /  5.0 °C 29.4in /  995.1hPa WSW 8.5mph /  13.7km/h 13.2mph /  21.2km/h 89% 0in /  0.0mm
20:24 44.1 °F /  6.7 °C 41 °F /  5.0 °C 29.4in /  994.1hPa SW 8.5mph /  13.7km/h 13.2mph /  21.2km/h 89% 0in /  0.0mm
20:29 44.1 °F /  6.7 °C 41 °F /  5.0 °C 29.4in /  994.1hPa SW 9.6mph /  15.4km/h 11.2mph /  18.0km/h 89% 0in /  0.0mm
20:34 44.1 °F /  6.7 °C 41 °F /  5.0 °C 29.4in /  994.1hPa SW 7.8mph /  12.6km/h 11.2mph /  18.0km/h 89% 0in /  0.0mm
20:35 44.1 °F /  6.7 °C 41 °F /  5.0 °C 29.4in /  994.1hPa SW 7.4mph /  11.9km/h 11.2mph /  18.0km/h 89% 0in /  0.0mm
20:40 44.1 °F /  6.7 °C 41 °F /  5.0 °C 29.4in /  995.1hPa SSW 8.1mph /  13.0km/h 11mph /  17.7km/h 89% 0in /  0.0mm
20:45 44.1 °F /  6.7 °C 41 °F /  5.0 °C 29.4in /  995.1hPa SW 7.6mph /  12.2km/h 12.5mph /  20.1km/h 89% 0in /  0.0mm
20:50 44.1 °F /  6.7 °C 40.6 °F /  4.8 °C 29.4in /  995.1hPa SW 9.2mph /  14.8km/h 12.5mph /  20.1km/h 88% 0in /  0.0mm
20:55 44.1 °F /  6.7 °C 40.6 °F /  4.8 °C 29.4in /  995.1hPa WSW 7.6mph /  12.2km/h 12.8mph /  20.6km/h 88% 0in /  0.0mm
21:00 44.2 °F /  6.8 °C 40.8 °F /  4.9 °C 29.4in /  995.1hPa SSW 8.1mph /  13.0km/h 12.8mph /  20.6km/h 88% 0in /  0.0mm
21:05 44.2 °F /  6.8 °C 41 °F /  5.0 °C 29.4in /  995.1hPa SSW 5.8mph /  9.3km/h 11.2mph /  18.0km/h 88% 0in /  0.0mm
21:11 44.2 °F /  6.8 °C 40.6 °F /  4.8 °C 29.4in /  994.1hPa SW 5.8mph /  9.3km/h 12.1mph /  19.5km/h 87% 0in /  0.0mm
21:16 44.2 °F /  6.8 °C 41 °F /  5.0 °C 29.4in /  994.1hPa SW 11.4mph /  18.3km/h 12.8mph /  20.6km/h 88% 0in /  0.0mm
21:21 44.2 °F /  6.8 °C 41 °F /  5.0 °C 29.4in /  994.1hPa WSW 13.2mph /  21.2km/h 14.5mph /  23.3km/h 88% 0in /  0.0mm
21:26 44.2 °F /  6.8 °C 41 °F /  5.0 °C 29.4in /  995.1hPa SSW 11mph /  17.7km/h 18.1mph /  29.1km/h 88% 0in /  0.0mm
21:31 44.4 °F /  6.9 °C 41.5 °F /  5.3 °C 29.4in /  995.1hPa SW 14.8mph /  23.8km/h 18.1mph /  29.1km/h 89% 0in /  0.0mm
21:36 44.4 °F /  6.9 °C 41.5 °F /  5.3 °C 29.4in /  995.1hPa WSW 10.1mph /  16.3km/h 17mph /  27.4km/h 89% 0in /  0.0mm
21:41 44.4 °F /  6.9 °C 41.5 °F /  5.3 °C 29.4in /  995.1hPa SW 11mph /  17.7km/h 13mph /  20.9km/h 89% 0in /  0.0mm
21:46 44.4 °F /  6.9 °C 42.1 °F /  5.6 °C 29.4in /  995.1hPa SSW 10.1mph /  16.3km/h 13mph /  20.9km/h 91% 0in /  0.0mm
21:51 44.2 °F /  6.8 °C 41.9 °F /  5.5 °C 29.4in /  995.1hPa SW 10.7mph /  17.2km/h 12.8mph /  20.6km/h 91% 0in /  0.0mm
21:54 44.2 °F /  6.8 °C 41.9 °F /  5.5 °C 29.4in /  995.1hPa SSW 12.8mph /  20.6km/h 12.8mph /  20.6km/h 91% 0in /  0.0mm
21:59 44.2 °F /  6.8 °C 41.9 °F /  5.5 °C 29.4in /  995.1hPa SSW 9.6mph /  15.4km/h 15.9mph /  25.6km/h 91% 0in /  0.0mm
22:04 44.2 °F /  6.8 °C 41.9 °F /  5.5 °C 29.4in /  995.1hPa SW 14.8mph /  23.8km/h 17.9mph /  28.8km/h 91% 0in /  0.0mm
22:09 44.2 °F /  6.8 °C 41.7 °F /  5.4 °C 29.4in /  995.1hPa SSW 13.2mph /  21.2km/h 17.9mph /  28.8km/h 91% 0in /  0.0mm
22:14 44.1 °F /  6.7 °C 41.7 °F /  5.4 °C 29.4in /  995.1hPa SSW 10.7mph /  17.2km/h 15.2mph /  24.5km/h 92% 0in /  0.0mm
22:19 43.9 °F /  6.6 °C 41.9 °F /  5.5 °C 29.4in /  995.1hPa SSW 11.9mph /  19.1km/h 14.8mph /  23.8km/h 93% 0in /  0.0mm
22:24 43.9 °F /  6.6 °C 42.3 °F /  5.7 °C 29.4in /  994.1hPa SSW 13mph /  20.9km/h 14.3mph /  23.0km/h 94% 0.02in /  0.5mm
22:29 43.9 °F /  6.6 °C 42.4 °F /  5.8 °C 29.4in /  994.1hPa SSW 9.8mph /  15.8km/h 14.8mph /  23.8km/h 95% 0.04in /  1.0mm
22:34 43.9 °F /  6.6 °C 42.8 °F /  6.0 °C 29.4in /  994.1hPa SW 10.7mph /  17.2km/h 17.4mph /  28.0km/h 96% 0.04in /  1.0mm
22:39 43.9 °F /  6.6 °C 42.8 °F /  6.0 °C 29.4in /  995.1hPa SW 10.3mph /  16.6km/h 17.4mph /  28.0km/h 96% 0.04in /  1.0mm
22:44 43.9 °F /  6.6 °C 42.8 °F /  6.0 °C 29.4in /  995.1hPa SW 11mph /  17.7km/h 17.2mph /  27.7km/h 96% 0.04in /  1.0mm
22:49 43.9 °F /  6.6 °C 42.8 °F /  6.0 °C 29.4in /  995.1hPa WSW 8.9mph /  14.3km/h 15.2mph /  24.5km/h 96% 0.04in /  1.0mm
22:54 43.9 °F /  6.6 °C 43 °F /  6.1 °C 29.4in /  995.1hPa WSW 7.6mph /  12.2km/h 13.2mph /  21.2km/h 97% 0.04in /  1.0mm
22:59 43.5 °F /  6.4 °C 42.8 °F /  6.0 °C 29.4in /  995.1hPa WSW 13mph /  20.9km/h 13.2mph /  21.2km/h 97% 0.04in /  1.0mm
23:04 43.9 °F /  6.6 °C 43 °F /  6.1 °C 29.4in /  995.1hPa West 7.6mph /  12.2km/h 13mph /  20.9km/h 97% 0.14in /  3.6mm
23:09 43.9 °F /  6.6 °C 43 °F /  6.1 °C 29.4in /  995.1hPa WSW 7.4mph /  11.9km/h 13mph /  20.9km/h 97% 0.14in /  3.6mm
23:14 44.1 °F /  6.7 °C 43.5 °F /  6.4 °C 29.4in /  995.1hPa WSW 13mph /  20.9km/h 14.8mph /  23.8km/h 98% 0.14in /  3.6mm
23:19 44.1 °F /  6.7 °C 43.5 °F /  6.4 °C 29.4in /  995.1hPa WSW 12.1mph /  19.5km/h 15.2mph /  24.5km/h 98% 0.14in /  3.6mm
23:24 44.1 °F /  6.7 °C 43.5 °F /  6.4 °C 29.4in /  995.1hPa WSW 11.9mph /  19.1km/h 15.2mph /  24.5km/h 98% 0.11in /  2.8mm
23:29 44.1 °F /  6.7 °C 43.5 °F /  6.4 °C 29.4in /  995.1hPa WSW 7.6mph /  12.2km/h 13.4mph /  21.6km/h 98% 0.09in /  2.3mm
23:34 44.1 °F /  6.7 °C 43.5 °F /  6.4 °C 29.4in /  995.1hPa WSW 10.3mph /  16.6km/h 13.4mph /  21.6km/h 98% 0.11in /  2.8mm
23:39 44.1 °F /  6.7 °C 43.5 °F /  6.4 °C 29.4in /  995.1hPa WSW 11.2mph /  18.0km/h 14.1mph /  22.7km/h 98% 0.11in /  2.8mm
23:44 44.1 °F /  6.7 °C 43.5 °F /  6.4 °C 29.4in /  995.1hPa WSW 11mph /  17.7km/h 14.1mph /  22.7km/h 98% 0.11in /  2.8mm
23:49 44.1 °F /  6.7 °C 43.5 °F /  6.4 °C 29.4in /  995.1hPa West 7.8mph /  12.6km/h 12.5mph /  20.1km/h 98% 0.11in /  2.8mm
23:54 44.2 °F /  6.8 °C 43.5 °F /  6.4 °C 29.4in /  996.2hPa WSW 3.1mph /  5.0km/h 12.3mph /  19.8km/h 98% 0.11in /  2.8mm
23:59 44.2 °F /  6.8 °C 43.5 °F /  6.4 °C 29.4in /  996.2hPa WSW 4.3mph /  6.9km/h 8.7mph /  14.0km/h 98% 0.11in /  2.8mm
Données Historique de Météo Turbie

Mise a jour : 24/05/2018 15:58:13
Généré par Cumulus 1.9.4 (1099)